createdAt,value
2023-06-16T00:00:13.013Z,100286.56
2023-06-16T00:01:16.624Z,100285.72
2023-06-16T00:02:22.922Z,100290.44
2023-06-16T00:03:25.049Z,100293.22
2023-06-16T00:04:28.500Z,100277.91
2023-06-16T00:05:31.219Z,100285.72
2023-06-16T00:06:33.184Z,100288.25
2023-06-16T00:07:36.231Z,100291.63
2023-06-16T00:08:38.746Z,100294.66
2023-06-16T00:09:40.856Z,100292.72
2023-06-16T00:10:42.936Z,100292.47
2023-06-16T00:11:44.960Z,100286.06
2023-06-16T00:12:47.022Z,100289.69
2023-06-16T00:13:49.711Z,100291.63
2023-06-16T00:14:51.671Z,100289.09
2023-06-16T00:15:53.627Z,100283.28
2023-06-16T00:16:58.520Z,100290.19
2023-06-16T00:18:01.434Z,100281.88
2023-06-16T00:19:03.542Z,100280.78
2023-06-16T00:20:08.552Z,100284.38
2023-06-16T00:21:11.175Z,100280.78
2023-06-16T00:22:13.322Z,100280.78
2023-06-16T00:23:17.826Z,100284.66
2023-06-16T00:24:19.850Z,100279.09
2023-06-16T00:25:21.863Z,100279.09
2023-06-16T00:26:27.818Z,100272.69
2023-06-16T00:27:29.891Z,100273.78
2023-06-16T00:28:33.528Z,100272.63
2023-06-16T00:29:35.852Z,100275.97
2023-06-16T00:30:37.816Z,100269.31
2023-06-16T00:31:39.838Z,100277.41
2023-06-16T00:32:41.911Z,100281.53
2023-06-16T00:33:43.892Z,100282.38
2023-06-16T00:34:46.899Z,100273.78
2023-06-16T00:35:48.974Z,100281.53
2023-06-16T00:36:51.196Z,100278.50
2023-06-16T00:37:53.160Z,100270.16
2023-06-16T00:38:55.125Z,100274.88
2023-06-16T00:39:57.139Z,100278.25
2023-06-16T00:40:59.149Z,100270.69
2023-06-16T00:42:04.381Z,100272.03
2023-06-16T00:43:10.726Z,100280.09
2023-06-16T00:44:12.735Z,100271.78
2023-06-16T00:45:14.730Z,100273.97
2023-06-16T00:46:29.030Z,100275.31
2023-06-16T00:47:31.728Z,100279.78
2023-06-16T00:48:33.762Z,100265.31
2023-06-16T00:49:37.704Z,100265.63
2023-06-16T00:50:39.825Z,100275.06
2023-06-16T00:51:41.810Z,100264.78
2023-06-16T00:52:43.849Z,100279.25
2023-06-16T00:53:46.069Z,100258.97
2023-06-16T00:54:48.123Z,100267.81
2023-06-16T00:55:50.189Z,100270.34
2023-06-16T00:56:52.866Z,100266.97
2023-06-16T00:57:55.077Z,100266.72
2023-06-16T00:58:57.473Z,100261.19
2023-06-16T00:59:59.640Z,100263.44
2023-06-16T01:01:01.658Z,100266.22
2023-06-16T01:02:03.736Z,100267.06
2023-06-16T01:03:06.037Z,100262.59
2023-06-16T01:04:08.222Z,100263.44
2023-06-16T01:05:10.282Z,100263.19
2023-06-16T01:06:35.064Z,100259.31
2023-06-16T01:07:41.050Z,100263.53
2023-06-16T01:08:52.789Z,100262.94
2023-06-16T01:10:03.313Z,100264.09
2023-06-16T01:11:28.825Z,100256.63
2023-06-16T01:12:40.612Z,100257.19
2023-06-16T01:13:48.361Z,100260.81
2023-06-16T01:14:54.690Z,100252.50
2023-06-16T01:15:57.030Z,100257.44
2023-06-16T01:16:59.290Z,100257.19
2023-06-16T01:18:04.636Z,100259.13
2023-06-16T01:19:10.729Z,100259.47
2023-06-16T01:20:43.051Z,100262.25
2023-06-16T01:21:58.712Z,100259.47
2023-06-16T01:23:06.520Z,100260.81
2023-06-16T01:24:18.394Z,100260.06
2023-06-16T01:25:23.806Z,100256.44
2023-06-16T01:26:27.504Z,100251.72
2023-06-16T01:27:31.179Z,100246.94
2023-06-16T01:28:33.578Z,100252.22
2023-06-16T01:29:37.565Z,100252.22
2023-06-16T01:30:43.698Z,100251.38
2023-06-16T01:31:45.765Z,100251.13
2023-06-16T01:32:48.316Z,100251.13
2023-06-16T01:33:50.394Z,100239.78
2023-06-16T01:34:52.600Z,100246.94
2023-06-16T01:35:54.761Z,100247.78
2023-06-16T01:36:56.774Z,100245.19
2023-06-16T01:37:58.762Z,100237.09
2023-06-16T01:39:01.467Z,100243.75
2023-06-16T01:40:04.675Z,100249.88
2023-06-16T01:41:06.918Z,100239.88
2023-06-16T01:42:08.966Z,100244.59
2023-06-16T01:43:11.119Z,100241.81
2023-06-16T01:44:13.141Z,100237.94
2023-06-16T01:45:16.134Z,100244.59
2023-06-16T01:46:18.276Z,100240.97
2023-06-16T01:47:21.125Z,100238.72
2023-06-16T01:48:23.496Z,100247.38
2023-06-16T01:49:25.618Z,100239.03
2023-06-16T01:50:27.603Z,100235.09
2023-06-16T01:51:29.564Z,100237.09
2023-06-16T01:52:31.541Z,100235.69
2023-06-16T01:53:33.556Z,100239.22
2023-06-16T01:54:35.633Z,100238.13
2023-06-16T01:55:37.747Z,100227.00
2023-06-16T01:56:39.720Z,100238.13
2023-06-16T01:57:44.632Z,100235.34
2023-06-16T01:58:46.605Z,100238.97
2023-06-16T01:59:51.628Z,100230.13
2023-06-16T02:00:58.835Z,100230.38
2023-06-16T02:02:07.674Z,100227.28
2023-06-16T02:03:17.173Z,100233.06
2023-06-16T02:04:21.493Z,100227.59
2023-06-16T02:05:24.841Z,100230.13
2023-06-16T02:06:35.034Z,100223.13
2023-06-16T02:07:39.538Z,100224.25
2023-06-16T02:08:41.552Z,100220.63
2023-06-16T02:09:43.936Z,100226.75
2023-06-16T02:10:46.056Z,100221.47
2023-06-16T02:11:48.070Z,100230.88
2023-06-16T02:12:50.095Z,100223.13
2023-06-16T02:13:52.540Z,100222.03
2023-06-16T02:14:54.628Z,100225.91
2023-06-16T02:15:56.876Z,100219.28
2023-06-16T02:16:58.919Z,100215.06
2023-06-16T02:18:00.934Z,100222.56
2023-06-16T02:19:02.931Z,100213.97
2023-06-16T02:20:07.854Z,100227.00
2023-06-16T02:21:09.869Z,100213.97
2023-06-16T02:22:17.181Z,100216.50
2023-06-16T02:23:19.150Z,100213.72
2023-06-16T02:24:21.192Z,100214.81
2023-06-16T02:25:23.262Z,100222.56
2023-06-16T02:26:25.675Z,100208.09
2023-06-16T02:27:27.948Z,100205.56
2023-06-16T02:28:29.921Z,100209.69
2023-06-16T02:29:32.652Z,100216.09
2023-06-16T02:30:34.734Z,100218.34
2023-06-16T02:31:37.032Z,100213.06
2023-06-16T02:32:46.180Z,100214.72
2023-06-16T02:33:55.862Z,100215.25
2023-06-16T02:34:58.834Z,100210.19
2023-06-16T02:36:00.819Z,100206.06
2023-06-16T02:37:02.936Z,100213.56
2023-06-16T02:38:04.963Z,100212.22
2023-06-16T02:39:06.973Z,100205.50
2023-06-16T02:40:09.416Z,100210.19
2023-06-16T02:41:11.432Z,100206.59
2023-06-16T02:42:13.764Z,100208.78
2023-06-16T02:43:15.774Z,100213.56
2023-06-16T02:44:17.751Z,100210.47
2023-06-16T02:45:19.884Z,100210.78
2023-06-16T02:46:26.002Z,100211.63
2023-06-16T02:47:28.039Z,100207.44
2023-06-16T02:48:32.743Z,100209.44
2023-06-16T02:49:34.890Z,100210.78
2023-06-16T02:50:37.144Z,100211.03
2023-06-16T02:51:39.613Z,100211.56
2023-06-16T02:52:42.508Z,100211.56
2023-06-16T02:53:46.471Z,100212.91
2023-06-16T02:54:48.510Z,100213.81
2023-06-16T02:55:50.485Z,100211.31
2023-06-16T02:56:52.485Z,100217.09
2023-06-16T02:57:54.527Z,100209.88
2023-06-16T02:58:56.754Z,100214.34
2023-06-16T03:00:00.396Z,100220.47
2023-06-16T03:01:02.987Z,100215.16
2023-06-16T03:02:05.333Z,100220.13
2023-06-16T03:03:08.711Z,100222.16
2023-06-16T03:04:11.640Z,100215.16
2023-06-16T03:05:15.786Z,100211.88
2023-06-16T03:06:21.061Z,100213.50
2023-06-16T03:07:23.686Z,100218.53
2023-06-16T03:08:25.992Z,100218.53
2023-06-16T03:09:27.965Z,100207.44
2023-06-16T03:10:30.240Z,100213.56
2023-06-16T03:11:32.969Z,100220.22
2023-06-16T03:12:35.021Z,100215.75
2023-06-16T03:13:38.254Z,100218.28
2023-06-16T03:14:40.259Z,100220.47
2023-06-16T03:15:43.819Z,100216.34
2023-06-16T03:16:49.341Z,100220.81
2023-06-16T03:17:51.427Z,100221.91
2023-06-16T03:18:53.419Z,100222.72
2023-06-16T03:19:55.418Z,100224.66
2023-06-16T03:20:57.565Z,100219.97
2023-06-16T03:21:59.610Z,100219.97
2023-06-16T03:23:02.128Z,100218.88
2023-06-16T03:24:04.275Z,100231.66
2023-06-16T03:25:06.647Z,100220.53
2023-06-16T03:26:08.711Z,100223.56
2023-06-16T03:27:12.031Z,100216.09
2023-06-16T03:28:14.551Z,100222.22
2023-06-16T03:29:16.558Z,100220.53
2023-06-16T03:30:19.235Z,100220.03
2023-06-16T03:31:24.421Z,100227.28
2023-06-16T03:32:26.467Z,100231.13
2023-06-16T03:33:30.621Z,100228.63
2023-06-16T03:34:34.147Z,100222.56
2023-06-16T03:35:36.123Z,100223.31
2023-06-16T03:36:40.301Z,100220.28
2023-06-16T03:37:42.267Z,100223.66
2023-06-16T03:38:44.319Z,100221.13
2023-06-16T03:39:46.289Z,100220.03
2023-06-16T03:40:48.382Z,100221.38
2023-06-16T03:41:50.478Z,100224.41
2023-06-16T03:42:52.461Z,100226.09
2023-06-16T03:43:54.468Z,100222.47
2023-06-16T03:44:56.471Z,100221.06
2023-06-16T03:45:58.541Z,100223.00
2023-06-16T03:47:00.590Z,100223.31
2023-06-16T03:48:09.967Z,100223.06
2023-06-16T03:49:13.203Z,100222.22
2023-06-16T03:50:15.528Z,100221.97
2023-06-16T03:51:18.239Z,100225.06
2023-06-16T03:52:20.342Z,100223.13
2023-06-16T03:53:22.454Z,100221.47
2023-06-16T03:54:24.544Z,100221.22
2023-06-16T03:55:26.622Z,100229.03
2023-06-16T03:56:28.618Z,100218.16
2023-06-16T03:57:30.628Z,100227.59
2023-06-16T03:58:32.780Z,100230.13
2023-06-16T03:59:34.846Z,100223.47
2023-06-16T04:00:37.605Z,100230.13
2023-06-16T04:01:39.713Z,100223.47
2023-06-16T04:02:42.569Z,100233.16
2023-06-16T04:03:45.398Z,100234.84
2023-06-16T04:04:48.760Z,100236.50
2023-06-16T04:05:51.060Z,100229.59
2023-06-16T04:06:53.145Z,100236.25
2023-06-16T04:07:58.395Z,100232.38
2023-06-16T04:09:00.403Z,100229.94
2023-06-16T04:10:02.743Z,100236.06
2023-06-16T04:11:05.244Z,100238.84
2023-06-16T04:12:07.564Z,100234.72
2023-06-16T04:13:09.548Z,100239.69
2023-06-16T04:14:11.798Z,100238.94
2023-06-16T04:15:13.850Z,100248.03
2023-06-16T04:16:16.060Z,100244.66
2023-06-16T04:17:21.062Z,100250.03
2023-06-16T04:18:26.186Z,100247.00
2023-06-16T04:19:28.157Z,100248.69
2023-06-16T04:20:30.162Z,100250.28
2023-06-16T04:21:32.916Z,100243.31
2023-06-16T04:22:34.952Z,100238.00
2023-06-16T04:23:37.396Z,100243.81
2023-06-16T04:24:39.457Z,100242.41
2023-06-16T04:25:41.768Z,100242.97
2023-06-16T04:26:43.767Z,100242.47
2023-06-16T04:27:47.741Z,100245.00
2023-06-16T04:28:54.730Z,100245.00
2023-06-16T04:29:58.494Z,100243.50
2023-06-16T04:31:01.662Z,100240.47
2023-06-16T04:32:04.149Z,100236.84
2023-06-16T04:33:06.667Z,100237.94
2023-06-16T04:34:12.702Z,100234.91
2023-06-16T04:35:14.668Z,100235.75
2023-06-16T04:36:18.335Z,100239.63
2023-06-16T04:37:20.343Z,100227.41
2023-06-16T04:38:22.627Z,100231.53
2023-06-16T04:39:25.013Z,100242.66
2023-06-16T04:40:30.755Z,100231.28
2023-06-16T04:41:36.473Z,100232.38
2023-06-16T04:42:38.880Z,100228.78
2023-06-16T04:43:40.859Z,100230.97
2023-06-16T04:44:43.101Z,100235.41
2023-06-16T04:45:45.140Z,100233.47
2023-06-16T04:46:47.113Z,100232.38
2023-06-16T04:47:51.682Z,100235.16
2023-06-16T04:48:53.775Z,100224.31
2023-06-16T04:49:55.742Z,100227.94
2023-06-16T04:50:58.597Z,100226.84
2023-06-16T04:52:00.634Z,100233.22
2023-06-16T04:53:06.464Z,100229.94
2023-06-16T04:54:08.477Z,100228.25
2023-06-16T04:55:10.523Z,100232.97
2023-06-16T04:56:12.512Z,100234.91
2023-06-16T04:57:14.692Z,100231.88
2023-06-16T04:58:16.825Z,100227.16
2023-06-16T04:59:23.736Z,100236.59
2023-06-16T05:00:29.071Z,100229.94
2023-06-16T05:01:31.090Z,100229.09
2023-06-16T05:02:33.641Z,100230.78
2023-06-16T05:03:36.287Z,100231.28
2023-06-16T05:04:39.622Z,100227.94
2023-06-16T05:05:41.674Z,100228.50
2023-06-16T05:06:43.869Z,100239.63
2023-06-16T05:07:45.851Z,100228.25
2023-06-16T05:08:47.870Z,100236.00
2023-06-16T05:09:49.835Z,100229.34
2023-06-16T05:10:51.800Z,100232.97
2023-06-16T05:11:53.803Z,100228.78
2023-06-16T05:12:55.907Z,100239.63
2023-06-16T05:13:57.912Z,100238.19
2023-06-16T05:14:59.890Z,100231.53
2023-06-16T05:16:01.855Z,100239.28
2023-06-16T05:17:04.004Z,100231.28
2023-06-16T05:18:06.405Z,100241.56
2023-06-16T05:19:08.741Z,100238.84
2023-06-16T05:20:11.318Z,100248.28
2023-06-16T05:21:13.297Z,100249.13
2023-06-16T05:22:15.468Z,100255.00
2023-06-16T05:23:17.493Z,100248.63
2023-06-16T05:24:19.481Z,100250.53
2023-06-16T05:25:24.506Z,100251.72
2023-06-16T05:26:29.266Z,100248.44
2023-06-16T05:27:31.235Z,100252.88
2023-06-16T05:28:33.210Z,100252.38
2023-06-16T05:29:35.215Z,100245.97
2023-06-16T05:30:37.343Z,100244.03
2023-06-16T05:31:39.432Z,100250.19
2023-06-16T05:32:41.722Z,100250.75
2023-06-16T05:33:43.791Z,100239.72
2023-06-16T05:34:46.236Z,100250.06
2023-06-16T05:35:48.207Z,100248.72
2023-06-16T05:36:50.239Z,100249.88
2023-06-16T05:37:52.232Z,100247.16
2023-06-16T05:38:54.238Z,100249.47
2023-06-16T05:39:56.253Z,100255.03
2023-06-16T05:40:58.360Z,100251.13
2023-06-16T05:42:00.354Z,100257.34
2023-06-16T05:43:02.327Z,100257.66
2023-06-16T05:44:04.335Z,100255.72
2023-06-16T05:45:06.914Z,100258.56
2023-06-16T05:46:08.982Z,100254.69
2023-06-16T05:47:11.234Z,100255.59
2023-06-16T05:48:13.340Z,100254.25
2023-06-16T05:49:15.725Z,100254.81
2023-06-16T05:50:17.973Z,100262.63
2023-06-16T05:51:20.250Z,100260.19
2023-06-16T05:52:22.289Z,100260.50
2023-06-16T05:53:24.319Z,100259.66
2023-06-16T05:54:26.382Z,100256.94
2023-06-16T05:55:28.453Z,100256.34
2023-06-16T05:56:30.690Z,100255.56
2023-06-16T05:57:32.749Z,100256.41
2023-06-16T05:58:36.919Z,100266.19
2023-06-16T05:59:38.996Z,100260.94
2023-06-16T06:00:41.999Z,100262.88
2023-06-16T06:01:44.047Z,100270.69
2023-06-16T06:02:46.285Z,100269.31
2023-06-16T06:03:48.686Z,100268.22
2023-06-16T06:04:51.165Z,100264.34
2023-06-16T06:05:53.172Z,100266.81
2023-06-16T06:06:55.334Z,100274.38
2023-06-16T06:07:57.372Z,100275.47
2023-06-16T06:08:59.474Z,100271.31
2023-06-16T06:10:01.680Z,100269.13
2023-06-16T06:11:06.094Z,100271.63
2023-06-16T06:12:09.481Z,100267.44
2023-06-16T06:13:11.512Z,100275.25
2023-06-16T06:14:19.294Z,100270.53
2023-06-16T06:15:21.324Z,100275.31
2023-06-16T06:16:23.500Z,100270.91
2023-06-16T06:17:25.768Z,100272.31
2023-06-16T06:18:27.819Z,100276.47
2023-06-16T06:19:29.852Z,100270.06
2023-06-16T06:20:31.869Z,100278.72
2023-06-16T06:21:38.148Z,100282.09
2023-06-16T06:22:40.166Z,100279.03
2023-06-16T06:23:42.137Z,100277.94
2023-06-16T06:24:44.105Z,100275.75
2023-06-16T06:25:46.212Z,100270.47
2023-06-16T06:26:48.253Z,100272.75
2023-06-16T06:27:50.233Z,100276.09
2023-06-16T06:28:52.260Z,100272.56
2023-06-16T06:29:54.293Z,100280.06
2023-06-16T06:30:56.271Z,100280.06
2023-06-16T06:31:58.282Z,100276.19
2023-06-16T06:33:01.385Z,100276.19
2023-06-16T06:34:03.460Z,100281.22
2023-06-16T06:35:05.899Z,100275.38
2023-06-16T06:36:08.062Z,100279.84
2023-06-16T06:37:17.539Z,100276.22
2023-06-16T06:38:19.555Z,100275.69
2023-06-16T06:39:21.642Z,100276.28
2023-06-16T06:40:23.841Z,100277.13
2023-06-16T06:41:26.706Z,100276.56
2023-06-16T06:42:29.074Z,100268.53
2023-06-16T06:43:31.043Z,100276.34
2023-06-16T06:44:33.008Z,100273.88
2023-06-16T06:45:35.000Z,100273.66
2023-06-16T06:46:37.048Z,100272.56
2023-06-16T06:47:40.188Z,100274.81
2023-06-16T06:48:42.608Z,100273.16
2023-06-16T06:49:44.648Z,100279.03
2023-06-16T06:50:47.319Z,100280.44
2023-06-16T06:51:49.338Z,100276.59
2023-06-16T06:52:53.580Z,100272.72
2023-06-16T06:53:55.877Z,100281.91
2023-06-16T06:54:58.062Z,100273.84
2023-06-16T06:56:00.051Z,100280.56
2023-06-16T06:57:02.193Z,100282.53
2023-06-16T06:58:04.299Z,100287.28
2023-06-16T06:59:06.539Z,100281.44
2023-06-16T07:00:09.110Z,100283.13
2023-06-16T07:01:11.161Z,100292.34
2023-06-16T07:02:13.226Z,100283.16
2023-06-16T07:03:15.412Z,100286.25
2023-06-16T07:04:17.755Z,100287.38
2023-06-16T07:05:19.989Z,100296.84
2023-06-16T07:06:22.439Z,100290.44
2023-06-16T07:07:24.517Z,100291.88
2023-06-16T07:08:26.634Z,100279.88
2023-06-16T07:09:31.271Z,100287.41
2023-06-16T07:10:34.094Z,100286.56
2023-06-16T07:11:38.957Z,100285.53
2023-06-16T07:12:42.099Z,100286.09
2023-06-16T07:13:44.139Z,100290.00
2023-06-16T07:14:46.964Z,100283.84
2023-06-16T07:15:49.094Z,100290.25
2023-06-16T07:16:51.408Z,100288.63
2023-06-16T07:17:53.464Z,100290.28
2023-06-16T07:18:55.477Z,100286.41
2023-06-16T07:19:57.541Z,100289.19
2023-06-16T07:20:59.532Z,100292.56
2023-06-16T07:22:02.003Z,100299.56
2023-06-16T07:23:04.035Z,100296.50
2023-06-16T07:24:07.172Z,100288.66
2023-06-16T07:25:09.621Z,100292.63
2023-06-16T07:26:11.680Z,100288.19
2023-06-16T07:27:13.787Z,100289.84
2023-06-16T07:28:15.868Z,100288.47
2023-06-16T07:29:19.153Z,100290.16
2023-06-16T07:30:21.330Z,100289.59
2023-06-16T07:31:23.520Z,100282.66
2023-06-16T07:32:25.662Z,100291.34
2023-06-16T07:33:27.821Z,100288.84
2023-06-16T07:34:34.206Z,100296.38
2023-06-16T07:35:37.251Z,100289.69
2023-06-16T07:36:40.609Z,100291.94
2023-06-16T07:37:42.600Z,100282.75
2023-06-16T07:38:44.705Z,100286.66
2023-06-16T07:39:46.722Z,100285.28
2023-06-16T07:40:48.778Z,100290.59
2023-06-16T07:41:50.846Z,100290.03
2023-06-16T07:42:52.838Z,100289.50
2023-06-16T07:43:54.893Z,100303.72
2023-06-16T07:44:56.908Z,100287.59
2023-06-16T07:45:59.020Z,100294.28
2023-06-16T07:47:01.162Z,100291.50
2023-06-16T07:48:04.041Z,100291.50
2023-06-16T07:49:06.073Z,100287.59
2023-06-16T07:50:08.842Z,100289.84
2023-06-16T07:51:10.912Z,100283.16
2023-06-16T07:52:16.969Z,100284.00
2023-06-16T07:53:19.835Z,100288.47
2023-06-16T07:54:21.917Z,100290.69
2023-06-16T07:55:23.911Z,100298.25
2023-06-16T07:56:25.940Z,100290.97
2023-06-16T07:57:29.097Z,100288.47
2023-06-16T07:58:33.181Z,100285.97
2023-06-16T07:59:35.336Z,100286.78
2023-06-16T08:00:37.311Z,100287.63
2023-06-16T08:01:39.367Z,100292.09
2023-06-16T08:02:41.641Z,100289.28
2023-06-16T08:03:48.049Z,100296.00
2023-06-16T08:04:50.307Z,100287.34
2023-06-16T08:05:52.298Z,100294.88
2023-06-16T08:06:54.302Z,100285.38
2023-06-16T08:07:56.278Z,100290.69
2023-06-16T08:08:58.315Z,100292.09
2023-06-16T08:10:00.323Z,100294.31
2023-06-16T08:11:02.716Z,100289.84
2023-06-16T08:12:05.952Z,100287.34
2023-06-16T08:13:08.023Z,100284.53
2023-06-16T08:14:10.041Z,100281.19
2023-06-16T08:15:12.205Z,100286.22
2023-06-16T08:16:14.256Z,100286.22
2023-06-16T08:17:16.619Z,100284.28
2023-06-16T08:18:19.264Z,100284.28
2023-06-16T08:19:21.286Z,100282.88
2023-06-16T08:20:27.052Z,100280.06
2023-06-16T08:21:29.031Z,100284.53
2023-06-16T08:22:31.032Z,100284.81
2023-06-16T08:23:33.036Z,100280.31
2023-06-16T08:24:35.164Z,100286.47
2023-06-16T08:25:37.357Z,100285.34
2023-06-16T08:26:41.818Z,100284.22
2023-06-16T08:27:44.114Z,100285.03
2023-06-16T08:28:46.169Z,100284.47
2023-06-16T08:29:48.936Z,100282.19
2023-06-16T08:30:51.099Z,100284.13
2023-06-16T08:31:53.080Z,100272.94
2023-06-16T08:32:55.137Z,100282.97
2023-06-16T08:33:58.125Z,100285.47
2023-06-16T08:35:00.163Z,100281.28
2023-06-16T08:36:02.470Z,100279.59
2023-06-16T08:37:11.068Z,100284.06
2023-06-16T08:38:22.691Z,100278.44
2023-06-16T08:39:24.672Z,100277.88
2023-06-16T08:40:29.811Z,100285.41
2023-06-16T08:41:31.902Z,100292.66
2023-06-16T08:42:34.585Z,100284.25
2023-06-16T08:43:39.630Z,100283.13
2023-06-16T08:44:41.664Z,100280.31
2023-06-16T08:45:46.389Z,100285.63
2023-06-16T08:46:49.034Z,100287.84
2023-06-16T08:47:51.448Z,100288.03
2023-06-16T08:48:53.585Z,100282.97
2023-06-16T08:49:57.455Z,100282.06
2023-06-16T08:51:00.768Z,100285.91
2023-06-16T08:52:07.473Z,100288.41
2023-06-16T08:53:11.231Z,100286.72
2023-06-16T08:54:14.210Z,100286.44
2023-06-16T08:55:16.625Z,100290.94
2023-06-16T08:56:19.270Z,100289.25
2023-06-16T08:57:21.269Z,100287.56
2023-06-16T08:58:23.268Z,100282.81
2023-06-16T08:59:26.318Z,100285.06
2023-06-16T09:00:28.952Z,100292.09
2023-06-16T09:01:31.250Z,100288.41
2023-06-16T09:02:34.662Z,100281.38
2023-06-16T09:03:38.711Z,100282.78
2023-06-16T09:04:42.884Z,100283.84
2023-06-16T09:05:44.994Z,100277.38
2023-06-16T09:06:47.232Z,100284.06
2023-06-16T09:07:51.243Z,100277.56
2023-06-16T09:08:56.073Z,100276.94
2023-06-16T09:09:58.103Z,100281.66
2023-06-16T09:11:06.209Z,100283.53
2023-06-16T09:12:14.208Z,100277.91
2023-06-16T09:13:17.490Z,100281.47
2023-06-16T09:14:21.564Z,100278.25
2023-06-16T09:15:24.184Z,100277.63
2023-06-16T09:16:26.274Z,100280.09
2023-06-16T09:17:34.919Z,100279.56
2023-06-16T09:18:45.986Z,100273.59
2023-06-16T09:19:49.219Z,100271.91
2023-06-16T09:20:54.558Z,100275.78
2023-06-16T09:21:58.166Z,100271.09
2023-06-16T09:23:01.126Z,100275.50
2023-06-16T09:24:03.353Z,100272.81
2023-06-16T09:25:07.038Z,100273.09
2023-06-16T09:26:15.383Z,100272.53
2023-06-16T09:27:17.955Z,100270.34
2023-06-16T09:28:20.137Z,100269.44
2023-06-16T09:29:23.386Z,100266.16
2023-06-16T09:30:31.947Z,100270.25
2023-06-16T09:31:34.024Z,100273.00
2023-06-16T09:32:39.341Z,100271.53
2023-06-16T09:33:42.081Z,100270.31
2023-06-16T09:34:45.138Z,100277.00
2023-06-16T09:35:49.154Z,100265.53
2023-06-16T09:36:52.287Z,100271.09
2023-06-16T09:37:58.520Z,100269.28
2023-06-16T09:39:00.878Z,100273.84
2023-06-16T09:40:08.305Z,100273.09
2023-06-16T09:41:17.252Z,100267.91
2023-06-16T09:42:19.855Z,100270.56
2023-06-16T09:43:24.838Z,100267.03
2023-06-16T09:44:27.032Z,100274.16
2023-06-16T09:45:31.386Z,100277.75
2023-06-16T09:46:33.578Z,100269.63
2023-06-16T09:47:38.303Z,100275.00
2023-06-16T09:48:50.200Z,100270.66
2023-06-16T09:49:54.877Z,100265.94
2023-06-16T09:50:58.745Z,100273.28
2023-06-16T09:52:00.784Z,100274.41
2023-06-16T09:53:07.569Z,100267.44
2023-06-16T09:54:09.872Z,100272.56
2023-06-16T09:55:15.815Z,100272.28
2023-06-16T09:56:18.301Z,100270.06
2023-06-16T09:57:20.271Z,100266.66
2023-06-16T09:58:33.697Z,100275.38
2023-06-16T09:59:44.667Z,100264.44
2023-06-16T10:00:46.842Z,100266.34
2023-06-16T10:01:48.840Z,100273.16
2023-06-16T10:02:54.247Z,100270.13
2023-06-16T10:03:57.343Z,100270.72
2023-06-16T10:05:00.413Z,100268.28
2023-06-16T10:06:03.207Z,100273.88
2023-06-16T10:07:06.092Z,100275.31
2023-06-16T10:08:08.555Z,100265.75
2023-06-16T10:09:11.343Z,100269.16
2023-06-16T10:10:13.481Z,100273.09
2023-06-16T10:11:19.025Z,100265.22
2023-06-16T10:12:21.412Z,100271.19
2023-06-16T10:13:23.486Z,100272.31
2023-06-16T10:14:31.391Z,100269.50
2023-06-16T10:15:38.810Z,100270.00
2023-06-16T10:16:40.870Z,100274.78
2023-06-16T10:17:42.946Z,100264.03
2023-06-16T10:18:48.560Z,100263.09
2023-06-16T10:19:52.050Z,100259.38
2023-06-16T10:20:54.164Z,100259.84
2023-06-16T10:21:56.167Z,100259.78
2023-06-16T10:22:58.138Z,100263.00
2023-06-16T10:24:02.256Z,100264.25
2023-06-16T10:25:07.300Z,100268.13
2023-06-16T10:26:09.299Z,100258.16
2023-06-16T10:27:11.867Z,100257.28
2023-06-16T10:28:15.712Z,100261.00
2023-06-16T10:29:18.799Z,100247.69
2023-06-16T10:30:21.711Z,100256.50
2023-06-16T10:31:26.497Z,100248.88
2023-06-16T10:32:28.579Z,100249.75
2023-06-16T10:33:33.156Z,100251.88
2023-06-16T10:34:39.401Z,100249.81
2023-06-16T10:35:49.864Z,100244.94
2023-06-16T10:36:55.798Z,100246.56
2023-06-16T10:37:57.809Z,100244.44
2023-06-16T10:39:09.405Z,100241.84
2023-06-16T10:40:15.453Z,100242.91
2023-06-16T10:41:18.315Z,100245.31
2023-06-16T10:42:20.485Z,100241.91
2023-06-16T10:43:26.507Z,100245.78
2023-06-16T10:44:30.422Z,100247.56
2023-06-16T10:45:40.544Z,100242.13
2023-06-16T10:46:42.729Z,100240.19
2023-06-16T10:47:56.393Z,100242.03
2023-06-16T10:49:21.637Z,100243.91
2023-06-16T10:50:48.054Z,100240.47
2023-06-16T10:51:50.591Z,100247.84
2023-06-16T10:52:55.776Z,100242.72
2023-06-16T10:53:57.828Z,100245.81
2023-06-16T10:55:33.423Z,100236.72
2023-06-16T10:57:11.347Z,100243.81
2023-06-16T10:58:15.966Z,100240.66
2023-06-16T10:59:18.154Z,100249.25
2023-06-16T11:00:20.394Z,100244.41
2023-06-16T11:01:24.504Z,100241.63
2023-06-16T11:02:31.847Z,100242.75
2023-06-16T11:03:37.747Z,100239.28
2023-06-16T11:04:39.880Z,100239.50
2023-06-16T11:05:42.020Z,100243.19
2023-06-16T11:07:16.325Z,100241.97
2023-06-16T11:08:32.145Z,100239.09
2023-06-16T11:09:34.141Z,100227.09
2023-06-16T11:10:54.521Z,100236.66
2023-06-16T11:11:59.423Z,100234.13
2023-06-16T11:13:01.682Z,100228.88
2023-06-16T11:14:03.694Z,100230.03
2023-06-16T11:15:06.208Z,100228.31
2023-06-16T11:16:08.258Z,100229.16
2023-06-16T11:17:10.353Z,100231.38
2023-06-16T11:18:13.763Z,100225.06
2023-06-16T11:19:19.071Z,100228.72
2023-06-16T11:20:21.828Z,100231.00
2023-06-16T11:21:31.689Z,100223.13
2023-06-16T11:22:34.669Z,100230.75
2023-06-16T11:23:36.787Z,100230.69
2023-06-16T11:24:41.304Z,100224.88
2023-06-16T11:25:43.325Z,100219.69
2023-06-16T11:26:45.344Z,100224.69
2023-06-16T11:27:47.364Z,100218.06
2023-06-16T11:28:49.565Z,100221.91
2023-06-16T11:29:55.083Z,100218.78
2023-06-16T11:30:57.100Z,100214.56
2023-06-16T11:32:00.629Z,100221.41
2023-06-16T11:33:03.113Z,100218.91
2023-06-16T11:34:05.532Z,100218.75
2023-06-16T11:35:07.982Z,100221.00
2023-06-16T11:36:31.800Z,100227.16
2023-06-16T11:38:03.060Z,100213.31
2023-06-16T11:39:09.388Z,100213.84
2023-06-16T11:40:12.854Z,100210.81
2023-06-16T11:41:19.353Z,100211.59
2023-06-16T11:42:21.390Z,100211.72
2023-06-16T11:43:23.950Z,100209.91
2023-06-16T11:44:26.519Z,100209.47
2023-06-16T11:45:29.594Z,100213.06
2023-06-16T11:46:34.275Z,100215.56
2023-06-16T11:47:36.419Z,100215.94
2023-06-16T11:48:39.180Z,100201.41
2023-06-16T11:49:41.193Z,100207.31
2023-06-16T11:50:43.225Z,100214.84
2023-06-16T11:51:45.235Z,100201.94
2023-06-16T11:52:47.203Z,100205.00
2023-06-16T11:53:49.187Z,100204.75
2023-06-16T11:54:51.170Z,100195.00
2023-06-16T11:55:53.234Z,100205.50
2023-06-16T11:56:59.090Z,100203.69
2023-06-16T11:58:01.107Z,100195.88
2023-06-16T11:59:04.719Z,100201.03
2023-06-16T12:00:08.217Z,100203.03
2023-06-16T12:01:14.136Z,100203.19
2023-06-16T12:02:16.495Z,100202.50
2023-06-16T12:03:18.641Z,100203.72
2023-06-16T12:04:20.958Z,100205.50
2023-06-16T12:05:28.363Z,100196.03